Time;durP1;ratioP1;P1;durP2;ratioP2;P2;SDS_P1;SDS_P2;PMS_P1;PMS_P2;Temp;Humidity;BMP_temperature;BMP_pressure;BME280_temperature;BME280_humidity;BME280_pressure;Samples;Min_cycle;Max_cycle;Signal;HPM_P1;HPM_P2
2023/03/29 00:01:32;;;;;;;0.30;0.30;;;;;;;;;;7402442;19;20165;-89
2023/03/29 00:04:03;;;;;;;0.40;0.40;;;;;;;;;;7396016;19;20137;-89
2023/03/29 00:06:31;;;;;;;0.30;0.30;;;;;;;;;;7399526;19;20149;-89
2023/03/29 00:09:00;;;;;;;0.40;0.40;;;;;;;;;;7401452;19;20156;-87
2023/03/29 00:11:27;;;;;;;0.30;0.30;;;;;;;;;;7402093;19;21141;-89
2023/03/29 00:13:54;;;;;;;0.30;0.30;;;;;;;;;;7402252;19;20160;-91
2023/03/29 00:16:21;;;;;;;0.30;0.30;;;;;;;;;;7398246;19;20140;-89
2023/03/29 00:18:47;;;;;;;0.30;0.30;;;;;;;;;;7401789;19;20413;-88
2023/03/29 00:21:14;;;;;;;0.30;0.30;;;;;;;;;;7399274;19;20161;-88
2023/03/29 00:23:41;;;;;;;0.57;0.57;;;;;;;;;;7402077;19;20125;-89
2023/03/29 00:26:07;;;;;;;0.40;0.40;;;;;;;;;;7398256;19;20204;-88
2023/03/29 00:28:37;;;;;;;0.30;0.30;;;;;;;;;;7402362;19;20133;-90
2023/03/29 00:31:10;;;;;;;0.40;0.40;;;;;;;;;;7398825;19;20144;-89
2023/03/29 00:33:37;;;;;;;0.40;0.40;;;;;;;;;;7400738;19;20149;-90
2023/03/29 00:36:05;;;;;;;0.20;0.20;;;;;;;;;;7395602;19;20171;-89
2023/03/29 00:38:32;;;;;;;0.30;0.30;;;;;;;;;;7391216;19;20145;-89
2023/03/29 00:40:59;;;;;;;2.47;0.70;;;;;;;;;;7398651;19;20149;-90
2023/03/29 00:43:26;;;;;;;0.30;0.30;;;;;;;;;;7400180;19;20144;-90
2023/03/29 00:45:53;;;;;;;0.30;0.30;;;;;;;;;;7397236;19;20548;-89
2023/03/29 00:48:21;;;;;;;0.30;0.30;;;;;;;;;;7397437;19;20136;-89
2023/03/29 00:50:53;;;;;;;0.30;0.30;;;;;;;;;;7396625;19;20527;-89
2023/03/29 00:53:25;;;;;;;0.30;0.30;;;;;;;;;;7395979;19;20161;-89
2023/03/29 00:56:17;;;;;;;0.30;0.30;;;;;;;;;;7397048;19;20141;-87
2023/03/29 00:58:51;;;;;;;0.37;0.37;;;;;;;;;;7408002;19;20137;-89
2023/03/29 01:01:24;;;;;;;0.37;0.37;;;;;;;;;;7408249;19;20136;-89
2023/03/29 01:03:57;;;;;;;0.30;0.30;;;;;;;;;;7411502;19;20136;-88
2023/03/29 01:06:25;;;;;;;0.30;0.30;;;;;;;;;;7413475;19;20151;-89
2023/03/29 01:08:56;;;;;;;0.30;0.30;;;;;;;;;;7412328;19;20141;-89
2023/03/29 01:11:28;;;;;;;0.40;0.40;;;;;;;;;;7402313;19;20129;-89
2023/03/29 01:14:10;;;;;;;0.27;0.27;;;;;;;;;;7399579;19;20141;-90
2023/03/29 01:16:37;;;;;;;0.20;0.20;;;;;;;;;;7399391;19;20136;-89
2023/03/29 01:19:10;;;;;;;0.30;0.30;;;;;;;;;;7395817;19;20164;-89
2023/03/29 01:21:46;;;;;;;0.30;0.30;;;;;;;;;;7399594;19;20144;-90
2023/03/29 01:24:49;;;;;;;0.30;0.30;;;;;;;;;;7400408;19;20144;-88
2023/03/29 01:27:43;;;;;;;0.20;0.20;;;;;;;;;;7399403;19;20196;-89
2023/03/29 01:30:17;;;;;;;0.20;0.20;;;;;;;;;;7397574;19;20575;-88
2023/03/29 01:32:51;;;;;;;0.30;0.30;;;;;;;;;;7397393;19;20145;-90
2023/03/29 01:35:45;;;;;;;0.30;0.30;;;;;;;;;;7397772;19;20200;-88
2023/03/29 01:38:24;;;;;;;0.40;0.40;;;;;;;;;;7397070;19;20161;-88
2023/03/29 01:40:50;;;;;;;0.63;0.63;;;;;;;;;;7394874;19;20624;-89
2023/03/29 01:43:23;;;;;;;0.30;0.30;;;;;;;;;;7403553;19;20169;-88
2023/03/29 01:46:13;;;;;;;0.30;0.30;;;;;;;;;;7411935;19;20129;-91
2023/03/29 01:48:49;;;;;;;0.70;0.70;;;;;;;;;;7406598;19;20137;-90
2023/03/29 01:51:32;;;;;;;0.20;0.20;;;;;;;;;;7412759;19;20133;-89
2023/03/29 01:54:11;;;;;;;0.30;0.30;;;;;;;;;;7410689;19;20125;-90
2023/03/29 01:56:39;;;;;;;0.30;0.30;;;;;;;;;;7393032;19;20549;-90
2023/03/29 01:59:10;;;;;;;0.30;0.30;;;;;;;;;;7395792;19;20165;-90
2023/03/29 02:01:47;;;;;;;0.30;0.30;;;;;;;;;;7393408;19;20157;-90
2023/03/29 02:04:19;;;;;;;0.30;0.30;;;;;;;;;;7394141;19;20145;-91
2023/03/29 02:06:46;;;;;;;0.20;0.20;;;;;;;;;;7397269;19;20133;-88
2023/03/29 02:09:13;;;;;;;0.30;0.30;;;;;;;;;;7396813;19;20148;-90
2023/03/29 02:11:40;;;;;;;0.40;0.40;;;;;;;;;;7395475;19;20141;-89
2023/03/29 02:14:08;;;;;;;0.50;0.50;;;;;;;;;;7394090;19;20172;-91
2023/03/29 02:16:36;;;;;;;0.30;0.30;;;;;;;;;;7413262;19;20160;-91
2023/03/29 02:19:03;;;;;;;0.30;0.30;;;;;;;;;;7415707;19;20168;-91
2023/03/29 02:21:38;;;;;;;0.30;0.30;;;;;;;;;;7415846;19;20129;-91
2023/03/29 02:24:06;;;;;;;0.30;0.30;;;;;;;;;;7410380;19;20193;-90
2023/03/29 02:26:33;;;;;;;0.30;0.30;;;;;;;;;;7398006;19;20173;-89
2023/03/29 02:29:00;;;;;;;0.30;0.30;;;;;;;;;;7403715;19;20728;-90
2023/03/29 02:31:43;;;;;;;0.30;0.30;;;;;;;;;;7396914;19;20144;-89
2023/03/29 02:34:36;;;;;;;0.53;0.43;;;;;;;;;;7400396;19;20125;-89
2023/03/29 02:37:07;;;;;;;0.30;0.30;;;;;;;;;;7398719;19;20145;-91
2023/03/29 02:39:33;;;;;;;0.30;0.30;;;;;;;;;;7395171;19;20153;-89
2023/03/29 02:42:01;;;;;;;0.30;0.30;;;;;;;;;;7403830;19;20141;-88
2023/03/29 02:44:30;;;;;;;0.30;0.30;;;;;;;;;;7406177;19;20165;-89
2023/03/29 02:47:00;;;;;;;0.37;0.37;;;;;;;;;;7404772;19;20594;-89
2023/03/29 02:49:27;;;;;;;1.33;0.77;;;;;;;;;;7402979;19;20149;-88
2023/03/29 02:51:56;;;;;;;0.30;0.30;;;;;;;;;;7403347;19;20160;-89
2023/03/29 02:54:24;;;;;;;0.30;0.30;;;;;;;;;;7396521;19;20180;-89
2023/03/29 02:57:00;;;;;;;0.30;0.30;;;;;;;;;;7399149;19;20148;-89
2023/03/29 02:59:28;;;;;;;0.30;0.30;;;;;;;;;;7401320;19;20159;-90
2023/03/29 03:01:55;;;;;;;0.30;0.30;;;;;;;;;;7400578;19;20140;-87
2023/03/29 03:04:22;;;;;;;0.30;0.30;;;;;;;;;;7398413;19;20192;-89
2023/03/29 03:06:48;;;;;;;0.20;0.20;;;;;;;;;;7402295;19;20145;-89
2023/03/29 03:09:15;;;;;;;0.77;0.60;;;;;;;;;;7398929;19;20183;-90
2023/03/29 03:11:42;;;;;;;0.30;0.30;;;;;;;;;;7396382;19;20147;-89
2023/03/29 03:14:09;;;;;;;0.30;0.30;;;;;;;;;;7397428;19;20585;-90
2023/03/29 03:16:36;;;;;;;0.30;0.30;;;;;;;;;;7399172;19;20597;-90
2023/03/29 03:19:03;;;;;;;0.30;0.30;;;;;;;;;;7402646;19;20187;-89
2023/03/29 03:21:29;;;;;;;0.50;0.50;;;;;;;;;;7400368;19;20141;-90
2023/03/29 03:23:56;;;;;;;0.30;0.30;;;;;;;;;;7395693;19;20144;-89
2023/03/29 03:26:28;;;;;;;0.30;0.30;;;;;;;;;;7398748;19;20141;-90
2023/03/29 03:28:55;;;;;;;0.60;0.60;;;;;;;;;;7398154;19;20157;-87
2023/03/29 03:31:22;;;;;;;0.30;0.30;;;;;;;;;;7403652;19;20165;-89
2023/03/29 03:33:49;;;;;;;0.37;0.37;;;;;;;;;;7398464;19;20618;-90
2023/03/29 03:36:16;;;;;;;0.30;0.30;;;;;;;;;;7400596;19;20133;-86
2023/03/29 03:38:42;;;;;;;0.30;0.30;;;;;;;;;;7399000;19;20149;-89
2023/03/29 03:41:09;;;;;;;0.40;0.40;;;;;;;;;;7399093;19;20125;-90
2023/03/29 03:43:36;;;;;;;0.30;0.30;;;;;;;;;;7402271;19;20129;-87
2023/03/29 03:46:03;;;;;;;0.30;0.30;;;;;;;;;;7400438;19;20270;-91
2023/03/29 03:48:30;;;;;;;0.30;0.30;;;;;;;;;;7401698;19;20562;-90
2023/03/29 03:50:57;;;;;;;0.30;0.30;;;;;;;;;;7395422;19;20153;-91
2023/03/29 03:53:26;;;;;;;0.30;0.30;;;;;;;;;;7400222;19;20233;-89
2023/03/29 03:55:54;;;;;;;0.30;0.30;;;;;;;;;;7401755;19;20133;-90
2023/03/29 03:58:21;;;;;;;0.30;0.30;;;;;;;;;;7394953;19;20502;-89
2023/03/29 04:00:49;;;;;;;0.40;0.40;;;;;;;;;;7395031;19;20149;-91
2023/03/29 04:03:16;;;;;;;0.30;0.30;;;;;;;;;;7400292;19;20598;-89
2023/03/29 04:05:44;;;;;;;0.30;0.30;;;;;;;;;;7400086;19;20173;-90
2023/03/29 04:08:12;;;;;;;0.30;0.30;;;;;;;;;;7399769;19;20129;-88
2023/03/29 04:10:38;;;;;;;0.40;0.40;;;;;;;;;;7399313;19;20630;-88
2023/03/29 04:13:05;;;;;;;0.50;0.50;;;;;;;;;;7397208;19;20141;-88
2023/03/29 04:15:37;;;;;;;0.30;0.30;;;;;;;;;;7401132;19;20165;-89
2023/03/29 04:18:06;;;;;;;0.30;0.30;;;;;;;;;;7399688;19;20154;-88
2023/03/29 04:20:33;;;;;;;0.30;0.30;;;;;;;;;;7395391;19;20217;-89
2023/03/29 04:23:00;;;;;;;0.30;0.30;;;;;;;;;;7396619;19;20204;-89
2023/03/29 04:25:27;;;;;;;0.40;0.40;;;;;;;;;;7395921;19;20165;-90
2023/03/29 04:27:53;;;;;;;0.40;0.40;;;;;;;;;;7395829;19;20167;-89
2023/03/29 04:30:20;;;;;;;0.30;0.30;;;;;;;;;;7394808;19;20176;-89
2023/03/29 04:32:47;;;;;;;0.37;0.37;;;;;;;;;;7395047;19;20649;-90
2023/03/29 04:35:14;;;;;;;0.40;0.40;;;;;;;;;;7396551;19;20141;-89
2023/03/29 04:37:40;;;;;;;0.30;0.30;;;;;;;;;;7395567;19;20185;-90
2023/03/29 04:40:08;;;;;;;0.30;0.30;;;;;;;;;;7397025;19;20152;-89
2023/03/29 04:42:36;;;;;;;0.30;0.30;;;;;;;;;;7395018;19;20621;-90
2023/03/29 04:45:05;;;;;;;0.40;0.40;;;;;;;;;;7401797;19;20165;-89
2023/03/29 04:47:35;;;;;;;0.30;0.30;;;;;;;;;;7397907;19;20137;-89
2023/03/29 04:50:02;;;;;;;0.40;0.40;;;;;;;;;;7398414;19;20148;-91
2023/03/29 04:52:31;;;;;;;0.43;0.43;;;;;;;;;;7398204;19;20160;-89
2023/03/29 04:55:00;;;;;;;0.30;0.30;;;;;;;;;;7399442;19;20499;-89
2023/03/29 04:57:27;;;;;;;0.53;0.53;;;;;;;;;;7398355;19;20140;-86
2023/03/29 04:59:54;;;;;;;0.30;0.30;;;;;;;;;;7399193;19;20172;-87
2023/03/29 05:02:21;;;;;;;0.50;0.50;;;;;;;;;;7398665;19;20180;-89
2023/03/29 05:04:48;;;;;;;0.30;0.30;;;;;;;;;;7399405;19;20145;-88
2023/03/29 05:07:16;;;;;;;0.30;0.30;;;;;;;;;;7396741;19;20525;-88
2023/03/29 05:09:43;;;;;;;0.50;0.50;;;;;;;;;;7398715;19;20160;-87
2023/03/29 05:12:09;;;;;;;0.30;0.30;;;;;;;;;;7399796;19;20128;-88
2023/03/29 05:14:36;;;;;;;0.30;0.30;;;;;;;;;;7397671;19;20539;-87
2023/03/29 05:17:03;;;;;;;0.30;0.30;;;;;;;;;;7400783;19;20125;-89
2023/03/29 05:19:30;;;;;;;0.40;0.40;;;;;;;;;;7398170;19;20157;-88
2023/03/29 05:21:57;;;;;;;0.30;0.30;;;;;;;;;;7395707;19;20524;-89
2023/03/29 05:24:24;;;;;;;0.40;0.40;;;;;;;;;;7397016;19;20492;-90
2023/03/29 05:26:51;;;;;;;0.40;0.40;;;;;;;;;;7398284;19;20181;-90
2023/03/29 05:29:18;;;;;;;0.30;0.30;;;;;;;;;;7397543;19;20300;-88
2023/03/29 05:31:45;;;;;;;0.77;0.73;;;;;;;;;;7397535;19;20141;-86
2023/03/29 05:34:12;;;;;;;0.20;0.20;;;;;;;;;;7400038;19;20190;-85
2023/03/29 05:36:39;;;;;;;0.30;0.30;;;;;;;;;;7400966;19;20173;-88
2023/03/29 05:39:06;;;;;;;0.50;0.50;;;;;;;;;;7397357;19;20176;-85
2023/03/29 05:41:33;;;;;;;0.30;0.30;;;;;;;;;;7396442;19;20148;-86
2023/03/29 05:44:00;;;;;;;16.73;0.73;;;;;;;;;;7402969;19;20160;-86
2023/03/29 05:46:27;;;;;;;0.80;0.63;;;;;;;;;;7402494;19;20133;-86
2023/03/29 05:48:53;;;;;;;0.30;0.30;;;;;;;;;;7399063;19;20136;-86
2023/03/29 05:51:23;;;;;;;0.30;0.30;;;;;;;;;;7400201;19;20117;-86
2023/03/29 05:53:50;;;;;;;0.30;0.30;;;;;;;;;;7398217;19;20192;-86
2023/03/29 05:56:17;;;;;;;0.20;0.20;;;;;;;;;;7400128;19;20140;-86
2023/03/29 05:58:48;;;;;;;0.40;0.40;;;;;;;;;;7401018;19;20145;-89
2023/03/29 06:01:16;;;;;;;0.30;0.30;;;;;;;;;;7396687;19;20144;-91
2023/03/29 06:03:44;;;;;;;0.40;0.40;;;;;;;;;;7402454;19;20132;-85
2023/03/29 06:06:15;;;;;;;0.30;0.30;;;;;;;;;;7402479;19;20156;-86
2023/03/29 06:08:43;;;;;;;0.30;0.30;;;;;;;;;;7402057;19;20211;-86
2023/03/29 06:11:11;;;;;;;0.37;0.37;;;;;;;;;;7402040;19;20157;-87
2023/03/29 06:13:37;;;;;;;0.50;0.50;;;;;;;;;;7402523;19;20137;-89
2023/03/29 06:16:05;;;;;;;0.27;0.27;;;;;;;;;;7402970;19;20161;-86
2023/03/29 06:18:32;;;;;;;0.30;0.30;;;;;;;;;;7401742;19;20170;-87
2023/03/29 06:21:01;;;;;;;0.30;0.30;;;;;;;;;;7398491;19;20272;-86
2023/03/29 06:23:29;;;;;;;0.20;0.20;;;;;;;;;;7402413;19;20137;-86
2023/03/29 06:25:56;;;;;;;0.40;0.40;;;;;;;;;;7399443;19;20601;-86
2023/03/29 06:28:23;;;;;;;0.30;0.30;;;;;;;;;;7398955;19;20129;-86
2023/03/29 06:30:52;;;;;;;0.30;0.30;;;;;;;;;;7396489;19;20176;-87
2023/03/29 06:33:19;;;;;;;0.60;0.60;;;;;;;;;;7400902;19;20145;-86
2023/03/29 06:35:47;;;;;;;0.20;0.20;;;;;;;;;;7397287;19;20858;-86
2023/03/29 06:38:14;;;;;;;0.30;0.30;;;;;;;;;;7400210;19;20169;-87
2023/03/29 06:40:42;;;;;;;0.30;0.30;;;;;;;;;;7397741;19;20168;-88
2023/03/29 06:43:09;;;;;;;0.30;0.30;;;;;;;;;;7394490;19;20165;-86
2023/03/29 06:45:37;;;;;;;0.30;0.30;;;;;;;;;;7399710;19;20153;-86
2023/03/29 06:48:05;;;;;;;0.70;0.60;;;;;;;;;;7398030;19;20239;-86
2023/03/29 06:50:32;;;;;;;0.30;0.30;;;;;;;;;;7399954;19;20165;-88
2023/03/29 06:52:59;;;;;;;0.30;0.30;;;;;;;;;;7399840;19;20133;-86
2023/03/29 06:55:26;;;;;;;1.60;0.93;;;;;;;;;;7395104;19;20140;-86
2023/03/29 06:57:53;;;;;;;0.30;0.30;;;;;;;;;;7399320;19;20163;-86
2023/03/29 07:00:26;;;;;;;0.40;0.40;;;;;;;;;;7398601;19;20184;-88
2023/03/29 07:02:55;;;;;;;0.30;0.30;;;;;;;;;;7397352;19;20137;-86
2023/03/29 07:05:22;;;;;;;0.40;0.40;;;;;;;;;;7399986;19;20141;-86
2023/03/29 07:07:55;;;;;;;0.40;0.40;;;;;;;;;;7399684;19;20709;-86
2023/03/29 07:10:27;;;;;;;0.40;0.40;;;;;;;;;;7398682;19;20216;-87
2023/03/29 07:12:54;;;;;;;0.30;0.30;;;;;;;;;;7400139;19;20141;-86
2023/03/29 07:15:21;;;;;;;0.30;0.30;;;;;;;;;;7406989;19;20133;-86
2023/03/29 07:17:48;;;;;;;0.50;0.50;;;;;;;;;;7406436;19;20589;-86
2023/03/29 07:20:15;;;;;;;0.30;0.30;;;;;;;;;;7406469;19;20589;-89
2023/03/29 07:22:43;;;;;;;0.40;0.40;;;;;;;;;;7403499;19;20181;-87
2023/03/29 07:25:11;;;;;;;0.30;0.30;;;;;;;;;;7408293;19;20178;-86
2023/03/29 07:27:39;;;;;;;0.30;0.30;;;;;;;;;;7407427;19;20133;-87
2023/03/29 07:30:11;;;;;;;0.30;0.30;;;;;;;;;;7406199;19;20169;-85
2023/03/29 07:32:38;;;;;;;0.30;0.30;;;;;;;;;;7405420;19;20620;-86
2023/03/29 07:35:06;;;;;;;0.60;0.60;;;;;;;;;;7407843;19;20182;-86
2023/03/29 07:37:36;;;;;;;0.30;0.30;;;;;;;;;;7406601;19;20181;-87
2023/03/29 07:40:08;;;;;;;0.30;0.30;;;;;;;;;;7405600;19;20161;-88
2023/03/29 07:42:37;;;;;;;0.30;0.30;;;;;;;;;;7413838;19;20137;-87
2023/03/29 07:45:05;;;;;;;0.30;0.30;;;;;;;;;;7429448;19;20157;-90
2023/03/29 07:47:31;;;;;;;0.30;0.30;;;;;;;;;;7427479;19;20633;-89
2023/03/29 07:49:58;;;;;;;0.30;0.30;;;;;;;;;;7426341;19;20164;-89
2023/03/29 07:52:27;;;;;;;0.47;0.47;;;;;;;;;;7415651;19;20129;-90
2023/03/29 07:54:54;;;;;;;0.67;0.67;;;;;;;;;;7396514;19;20235;-92
2023/03/29 07:57:26;;;;;;;0.33;0.33;;;;;;;;;;7398902;19;20854;-90
2023/03/29 07:59:53;;;;;;;0.30;0.30;;;;;;;;;;7400509;19;20269;-89
2023/03/29 08:02:20;;;;;;;0.73;0.60;;;;;;;;;;7397861;19;20204;-91
2023/03/29 08:04:47;;;;;;;0.30;0.30;;;;;;;;;;7402568;19;20161;-90
2023/03/29 08:07:17;;;;;;;0.63;0.63;;;;;;;;;;7400686;19;20612;-91
2023/03/29 08:09:44;;;;;;;0.40;0.40;;;;;;;;;;7401382;19;20160;-88
2023/03/29 08:12:11;;;;;;;0.30;0.30;;;;;;;;;;7403372;19;20148;-88
2023/03/29 08:14:38;;;;;;;1.17;1.07;;;;;;;;;;7400710;19;20141;-87
2023/03/29 08:17:05;;;;;;;0.30;0.30;;;;;;;;;;7399495;19;20164;-89
2023/03/29 08:19:31;;;;;;;0.40;0.40;;;;;;;;;;7402244;19;20157;-89
2023/03/29 08:21:59;;;;;;;0.20;0.20;;;;;;;;;;7401496;19;20974;-90
2023/03/29 08:24:26;;;;;;;0.40;0.40;;;;;;;;;;7398851;19;20153;-89
2023/03/29 08:26:52;;;;;;;0.37;0.37;;;;;;;;;;7402961;19;20141;-89
2023/03/29 08:29:19;;;;;;;0.30;0.30;;;;;;;;;;7401209;19;20194;-89
2023/03/29 08:31:46;;;;;;;0.30;0.30;;;;;;;;;;7399196;19;20140;-89
2023/03/29 08:34:12;;;;;;;0.30;0.30;;;;;;;;;;7399639;19;20141;-87
2023/03/29 08:36:40;;;;;;;0.40;0.40;;;;;;;;;;7398502;19;20200;-88
2023/03/29 08:39:06;;;;;;;0.30;0.30;;;;;;;;;;7399093;19;20173;-86
2023/03/29 08:41:39;;;;;;;0.40;0.40;;;;;;;;;;7399073;19;20169;-87
2023/03/29 08:44:43;;;;;;;0.40;0.40;;;;;;;;;;7404655;19;20145;-88
2023/03/29 08:47:33;;;;;;;0.30;0.30;;;;;;;;;;7398212;19;20165;-86
2023/03/29 08:50:00;;;;;;;0.30;0.30;;;;;;;;;;7398401;19;20584;-88
2023/03/29 08:52:43;;;;;;;0.30;0.30;;;;;;;;;;7401195;19;20141;-86
2023/03/29 08:55:44;;;;;;;0.50;0.50;;;;;;;;;;7398944;19;20125;-86
2023/03/29 08:58:14;;;;;;;0.30;0.30;;;;;;;;;;7397031;19;20149;-87
2023/03/29 09:00:51;;;;;;;0.97;0.60;;;;;;;;;;7397279;19;20169;-84
2023/03/29 09:03:24;;;;;;;0.37;0.37;;;;;;;;;;7394170;19;20151;-86
2023/03/29 09:06:06;;;;;;;1.33;0.77;;;;;;;;;;7398363;19;20160;-86
2023/03/29 09:08:38;;;;;;;0.50;0.50;;;;;;;;;;7398497;19;20166;-86
2023/03/29 09:11:25;;;;;;;0.37;0.37;;;;;;;;;;7397467;19;20188;-86
2023/03/29 09:14:29;;;;;;;0.37;0.37;;;;;;;;;;7399112;19;20144;-86
2023/03/29 09:17:16;;;;;;;0.30;0.30;;;;;;;;;;7395077;19;20140;-85
2023/03/29 09:19:45;;;;;;;0.30;0.30;;;;;;;;;;7396569;19;20156;-88
2023/03/29 09:22:18;;;;;;;0.30;0.30;;;;;;;;;;7396112;19;20140;-89
2023/03/29 09:25:12;;;;;;;1.43;1.27;;;;;;;;;;7397907;19;20478;-85
2023/03/29 09:27:58;;;;;;;0.20;0.20;;;;;;;;;;7397309;19;20137;-86
2023/03/29 09:30:40;;;;;;;0.43;0.43;;;;;;;;;;7396447;19;20172;-85
2023/03/29 09:33:11;;;;;;;0.30;0.30;;;;;;;;;;7397825;19;20226;-86
2023/03/29 09:35:53;;;;;;;0.50;0.50;;;;;;;;;;7393825;19;20145;-86
2023/03/29 09:38:21;;;;;;;0.30;0.30;;;;;;;;;;7396708;19;20147;-86
2023/03/29 09:40:52;;;;;;;0.30;0.30;;;;;;;;;;7396696;19;20172;-86
2023/03/29 09:43:29;;;;;;;0.40;0.40;;;;;;;;;;7395468;19;20165;-85
2023/03/29 09:45:57;;;;;;;0.67;0.47;;;;;;;;;;7398499;19;20519;-86
2023/03/29 09:48:25;;;;;;;0.50;0.50;;;;;;;;;;7395154;19;20136;-86
2023/03/29 09:50:53;;;;;;;0.50;0.43;;;;;;;;;;7393947;19;20230;-86
2023/03/29 09:53:20;;;;;;;0.77;0.77;;;;;;;;;;7395415;19;20144;-86
2023/03/29 09:55:49;;;;;;;0.30;0.30;;;;;;;;;;7395320;19;20144;-83
2023/03/29 09:58:22;;;;;;;0.30;0.30;;;;;;;;;;7387678;19;20137;-85
2023/03/29 10:00:49;;;;;;;0.30;0.30;;;;;;;;;;7390923;19;20164;-86
2023/03/29 10:03:22;;;;;;;0.53;0.53;;;;;;;;;;7388476;19;20912;-87
2023/03/29 10:05:53;;;;;;;0.40;0.40;;;;;;;;;;7394254;19;20149;-86
2023/03/29 10:08:50;;;;;;;0.40;0.40;;;;;;;;;;7387931;19;20136;-86
2023/03/29 10:11:22;;;;;;;0.70;0.70;;;;;;;;;;7407583;19;20145;-87
2023/03/29 10:13:53;;;;;;;0.73;0.73;;;;;;;;;;7403210;19;20908;-86
2023/03/29 10:16:23;;;;;;;0.50;0.50;;;;;;;;;;7401039;19;20141;-89
2023/03/29 10:18:49;;;;;;;0.30;0.30;;;;;;;;;;7421505;19;20141;-91
2023/03/29 10:21:19;;;;;;;0.30;0.30;;;;;;;;;;7424346;19;20137;-95
2023/03/29 11:31:26;;;;;;;0.60;0.60;;;;;;;;;;7399747;19;20140;-88
2023/03/29 11:34:18;;;;;;;0.35;0.35;;;;;;;;;;7392594;19;20132;-88
2023/03/29 11:36:56;;;;;;;0.73;0.45;;;;;;;;;;7397256;19;20137;-89
2023/03/29 11:39:45;;;;;;;0.32;0.32;;;;;;;;;;7396046;19;20148;-88
2023/03/29 11:42:16;;;;;;;0.82;0.82;;;;;;;;;;7396773;19;20141;-90
2023/03/29 11:44:45;;;;;;;0.40;0.40;;;;;;;;;;7389980;19;20164;-90
2023/03/29 11:47:17;;;;;;;0.55;0.55;;;;;;;;;;7400850;19;20204;-88
2023/03/29 11:49:56;;;;;;;3.15;0.80;;;;;;;;;;7402463;19;20610;-90
2023/03/29 11:52:38;;;;;;;0.40;0.40;;;;;;;;;;7398208;19;20651;-90
2023/03/29 11:55:12;;;;;;;0.45;0.45;;;;;;;;;;7398055;19;20148;-89
2023/03/29 11:57:55;;;;;;;2.90;0.90;;;;;;;;;;7398879;19;20136;-90
2023/03/29 12:00:28;;;;;;;0.68;0.68;;;;;;;;;;7399164;19;20279;-90
2023/03/29 12:03:23;;;;;;;0.40;0.40;;;;;;;;;;7403364;19;20144;-88
2023/03/29 12:05:55;;;;;;;1.55;0.63;;;;;;;;;;7403296;19;20144;-91
2023/03/29 12:08:53;;;;;;;0.38;0.38;;;;;;;;;;7393679;19;20600;-89
2023/03/29 12:11:34;;;;;;;0.40;0.40;;;;;;;;;;7394827;19;20152;-88
2023/03/29 12:14:17;;;;;;;0.80;0.70;;;;;;;;;;7392681;19;20152;-89
2023/03/29 12:16:47;;;;;;;0.50;0.50;;;;;;;;;;7397842;19;20133;-89
2023/03/29 12:19:21;;;;;;;0.38;0.38;;;;;;;;;;7401066;19;20193;-88
2023/03/29 12:21:48;;;;;;;1.15;0.68;;;;;;;;;;7402039;19;20249;-89
2023/03/29 12:24:16;;;;;;;0.52;0.52;;;;;;;;;;7398600;19;20141;-88
2023/03/29 12:26:52;;;;;;;0.77;0.77;;;;;;;;;;7391304;19;20145;-88
2023/03/29 12:29:31;;;;;;;0.73;0.73;;;;;;;;;;7401315;19;20160;-88
2023/03/29 12:32:17;;;;;;;0.40;0.40;;;;;;;;;;7401133;19;20134;-88
2023/03/29 12:35:12;;;;;;;0.40;0.40;;;;;;;;;;7392896;19;20145;-88
2023/03/29 12:37:48;;;;;;;0.75;0.75;;;;;;;;;;7392602;19;20176;-87
2023/03/29 12:40:18;;;;;;;0.35;0.35;;;;;;;;;;7426271;19;20145;-87
2023/03/29 12:42:46;;;;;;;0.73;0.73;;;;;;;;;;7429173;19;20125;-87
2023/03/29 12:45:18;;;;;;;0.20;0.20;;;;;;;;;;7427896;19;20522;-87
2023/03/29 12:47:46;;;;;;;0.93;0.77;;;;;;;;;;7424818;19;20140;-88
2023/03/29 12:50:30;;;;;;;0.68;0.60;;;;;;;;;;7422307;19;20160;-87
2023/03/29 12:53:17;;;;;;;0.43;0.43;;;;;;;;;;7407175;19;20156;-87
2023/03/29 12:56:07;;;;;;;1.10;0.85;;;;;;;;;;7398244;19;20720;-87
2023/03/29 12:58:54;;;;;;;1.45;0.82;;;;;;;;;;7400320;19;20145;-87
2023/03/29 13:01:29;;;;;;;0.45;0.45;;;;;;;;;;7391022;19;20168;-89
2023/03/29 13:04:35;;;;;;;0.93;0.70;;;;;;;;;;7391259;19;20140;-89
2023/03/29 13:07:02;;;;;;;3.55;0.65;;;;;;;;;;7392428;19;20161;-89
2023/03/29 13:09:36;;;;;;;0.40;0.40;;;;;;;;;;7395557;19;20193;-88
2023/03/29 13:12:09;;;;;;;0.47;0.47;;;;;;;;;;7391480;19;20145;-86
2023/03/29 13:14:41;;;;;;;0.40;0.40;;;;;;;;;;7393917;19;20140;-87
2023/03/29 13:17:47;;;;;;;0.60;0.60;;;;;;;;;;7396240;19;20145;-86
2023/03/29 13:20:39;;;;;;;0.50;0.50;;;;;;;;;;7390639;19;20148;-87
2023/03/29 13:23:45;;;;;;;0.30;0.30;;;;;;;;;;7393880;19;20144;-87
2023/03/29 13:26:20;;;;;;;0.50;0.50;;;;;;;;;;7413681;19;20591;-86
2023/03/29 13:29:05;;;;;;;0.52;0.52;;;;;;;;;;7424267;19;20144;-87
2023/03/29 13:31:40;;;;;;;0.73;0.63;;;;;;;;;;7419997;19;20172;-87
2023/03/29 13:34:25;;;;;;;1.30;0.85;;;;;;;;;;7418496;19;20145;-86
2023/03/29 13:37:12;;;;;;;0.52;0.52;;;;;;;;;;7399749;19;20157;-86
2023/03/29 13:39:51;;;;;;;0.40;0.40;;;;;;;;;;7390833;19;20500;-87
2023/03/29 13:42:44;;;;;;;0.47;0.47;;;;;;;;;;7392365;19;20192;-86
2023/03/29 13:45:21;;;;;;;0.45;0.45;;;;;;;;;;7388424;19;20152;-86
2023/03/29 13:47:48;;;;;;;0.60;0.60;;;;;;;;;;7391328;19;20664;-86
2023/03/29 13:50:35;;;;;;;1.35;0.60;;;;;;;;;;7392488;19;20231;-86
2023/03/29 13:53:11;;;;;;;0.50;0.50;;;;;;;;;;7385472;19;20145;-87
2023/03/29 13:55:48;;;;;;;0.85;0.63;;;;;;;;;;7390825;19;20157;-87
2023/03/29 13:58:31;;;;;;;0.52;0.52;;;;;;;;;;7385863;19;20496;-87
2023/03/29 14:01:06;;;;;;;0.55;0.55;;;;;;;;;;7390299;19;20180;-87
2023/03/29 14:03:40;;;;;;;0.30;0.30;;;;;;;;;;7386548;19;20607;-87
2023/03/29 14:06:08;;;;;;;0.40;0.40;;;;;;;;;;7385847;19;20235;-86
2023/03/29 14:08:38;;;;;;;0.40;0.40;;;;;;;;;;7394912;19;20153;-86
2023/03/29 14:11:06;;;;;;;0.60;0.60;;;;;;;;;;7396287;19;20145;-87
2023/03/29 14:13:33;;;;;;;0.30;0.30;;;;;;;;;;7395856;19;20608;-85
2023/03/29 14:16:03;;;;;;;0.47;0.47;;;;;;;;;;7396764;19;20601;-87
2023/03/29 14:18:50;;;;;;;0.45;0.45;;;;;;;;;;7395597;19;20518;-87
2023/03/29 14:21:18;;;;;;;3.92;0.63;;;;;;;;;;7392795;19;20157;-87
2023/03/29 14:23:46;;;;;;;0.65;0.65;;;;;;;;;;7395478;19;20125;-86
2023/03/29 14:26:18;;;;;;;0.40;0.40;;;;;;;;;;7398920;19;20145;-87
2023/03/29 14:28:47;;;;;;;0.40;0.40;;;;;;;;;;7394613;19;20141;-87
2023/03/29 14:31:34;;;;;;;0.57;0.57;;;;;;;;;;7400643;19;20140;-86
2023/03/29 14:34:04;;;;;;;0.68;0.68;;;;;;;;;;7398149;19;20148;-87
2023/03/29 14:36:32;;;;;;;0.80;0.73;;;;;;;;;;7398505;19;20152;-86
2023/03/29 14:39:01;;;;;;;0.35;0.35;;;;;;;;;;7400994;19;20192;-87
2023/03/29 14:41:35;;;;;;;0.80;0.80;;;;;;;;;;7398384;19;20502;-87
2023/03/29 14:44:03;;;;;;;3.78;0.93;;;;;;;;;;7400803;19;20507;-87
2023/03/29 14:46:30;;;;;;;0.50;0.50;;;;;;;;;;7398956;19;20641;-86
2023/03/29 14:48:57;;;;;;;0.73;0.73;;;;;;;;;;7399321;19;20168;-87
2023/03/29 14:51:29;;;;;;;0.32;0.32;;;;;;;;;;7395061;19;20174;-87
2023/03/29 14:53:58;;;;;;;0.43;0.43;;;;;;;;;;7395620;19;20145;-87
2023/03/29 14:56:25;;;;;;;2.25;1.10;;;;;;;;;;7398883;19;20133;-87
2023/03/29 14:58:55;;;;;;;0.55;0.55;;;;;;;;;;7398523;19;20650;-87
2023/03/29 15:01:24;;;;;;;0.40;0.40;;;;;;;;;;7400393;19;20541;-86
2023/03/29 15:04:10;;;;;;;0.60;0.60;;;;;;;;;;7394341;19;20150;-87
2023/03/29 15:06:39;;;;;;;0.82;0.82;;;;;;;;;;7399006;19;20180;-87
2023/03/29 15:09:13;;;;;;;0.50;0.50;;;;;;;;;;7396126;19;20164;-86
2023/03/29 15:11:40;;;;;;;0.38;0.38;;;;;;;;;;7395343;19;20482;-87
2023/03/29 15:14:11;;;;;;;0.40;0.40;;;;;;;;;;7397250;19;20133;-87
2023/03/29 15:16:40;;;;;;;0.70;0.70;;;;;;;;;;7397838;19;20160;-87
2023/03/29 15:19:12;;;;;;;1.95;1.15;;;;;;;;;;7397781;19;20157;-87
2023/03/29 15:21:38;;;;;;;0.30;0.30;;;;;;;;;;7395717;19;20157;-87
2023/03/29 15:24:05;;;;;;;0.40;0.40;;;;;;;;;;7396009;19;20150;-86
2023/03/29 15:26:33;;;;;;;0.40;0.40;;;;;;;;;;7395666;19;20613;-86
2023/03/29 15:29:11;;;;;;;0.47;0.47;;;;;;;;;;7394706;19;20202;-87
2023/03/29 15:31:40;;;;;;;0.30;0.30;;;;;;;;;;7398343;19;20156;-87
2023/03/29 15:34:11;;;;;;;0.90;0.90;;;;;;;;;;7395059;19;20121;-87
2023/03/29 15:36:45;;;;;;;3.92;0.63;;;;;;;;;;7399504;19;20151;-86
2023/03/29 15:39:13;;;;;;;0.68;0.60;;;;;;;;;;7394959;19;20173;-86
2023/03/29 15:41:40;;;;;;;0.77;0.77;;;;;;;;;;7399654;19;20161;-85
2023/03/29 15:44:07;;;;;;;0.82;0.82;;;;;;;;;;7400931;19;20133;-88
2023/03/29 15:46:34;;;;;;;0.50;0.50;;;;;;;;;;7398021;19;20613;-87
2023/03/29 15:49:00;;;;;;;0.80;0.80;;;;;;;;;;7394773;19;20180;-86
2023/03/29 15:51:27;;;;;;;0.40;0.40;;;;;;;;;;7392826;19;20161;-87
2023/03/29 15:53:54;;;;;;;0.40;0.40;;;;;;;;;;7395238;19;20162;-86
2023/03/29 15:56:21;;;;;;;0.47;0.47;;;;;;;;;;7389650;19;20176;-86
2023/03/29 15:58:48;;;;;;;3.65;1.17;;;;;;;;;;7396239;19;20150;-86
2023/03/29 16:01:33;;;;;;;1.02;0.93;;;;;;;;;;7394837;19;20145;-86
2023/03/29 16:04:01;;;;;;;1.08;0.93;;;;;;;;;;7397388;19;20157;-86
2023/03/29 16:06:28;;;;;;;0.65;0.65;;;;;;;;;;7384930;19;20612;-88
2023/03/29 16:08:55;;;;;;;1.40;0.82;;;;;;;;;;7384535;19;20133;-86
2023/03/29 16:11:23;;;;;;;1.33;0.60;;;;;;;;;;7396249;19;20638;-87
2023/03/29 16:13:50;;;;;;;0.50;0.50;;;;;;;;;;7397184;19;20136;-86
2023/03/29 16:16:17;;;;;;;0.82;0.82;;;;;;;;;;7395927;19;20136;-86
2023/03/29 16:18:44;;;;;;;0.60;0.60;;;;;;;;;;7395648;19;20576;-87